Saint Pete Beach, Florida
Current Conditions -  °F | °C
As of 7:32 PM on Sunday 23 Nov 2014 (Local Time) from KSPG Reporting Station
Broken Clouds Broken Clouds  
Wind Chill: 74°   Ceiling: 2100
Heat Index: 74°   Visibility: 10mi
Dew Point: 70°   Wind: 10mph
Humidity: 87%   Direction: 210°SSW
Pressure: 29.9"   Gusts: NA
Location:  27.7562°N, 82.7184°W
Report Text: KSPG 240032Z 21009KT 10SM BKN021 23/21 A2990 RMK AO2 T02330211
Loading
Personal Weather Stations






























Interactive Weather Map New forecast layout! Learn more

10-Day Weather Forecast

Advertisements
Track Severe Weather on mobile